createdAt,value
2018-11-26T00:00:45.681Z,100432.61
2018-11-26T00:03:13.160Z,100437.72
2018-11-26T00:05:40.758Z,100439.27
2018-11-26T00:08:09.628Z,100438.91
2018-11-26T00:10:48.613Z,100435.30
2018-11-26T00:13:16.105Z,100446.30
2018-11-26T00:15:44.091Z,100444.53
2018-11-26T00:18:11.452Z,100446.92
2018-11-26T00:20:41.236Z,100442.84
2018-11-26T00:23:08.866Z,100455.81
2018-11-26T00:25:36.259Z,100453.75
2018-11-26T00:28:03.793Z,100456.14
2018-11-26T00:30:31.832Z,100456.67
2018-11-26T00:32:59.167Z,100449.87
2018-11-26T00:35:26.552Z,100444.28
2018-11-26T00:37:53.880Z,100442.44
2018-11-26T00:40:21.253Z,100443.34
2018-11-26T00:42:48.711Z,100442.69
2018-11-26T00:45:16.745Z,100439.03
2018-11-26T00:47:44.125Z,100433.91
2018-11-26T00:50:11.454Z,100437.13
2018-11-26T00:52:39.914Z,100440.09
2018-11-26T00:55:09.217Z,100431.91
2018-11-26T00:57:36.675Z,100438.77
2018-11-26T01:00:06.349Z,100443.05
2018-11-26T01:02:34.895Z,100447.30
2018-11-26T01:05:02.211Z,100442.19
2018-11-26T01:07:29.656Z,100444.30
2018-11-26T01:09:57.030Z,100446.69
2018-11-26T01:12:24.339Z,100444.66
2018-11-26T01:14:51.702Z,100450.55
2018-11-26T01:17:19.141Z,100449.27
2018-11-26T01:19:46.475Z,100456.83
2018-11-26T01:22:13.893Z,100452.11
2018-11-26T01:24:41.324Z,100454.60
2018-11-26T01:27:08.672Z,100448.06
2018-11-26T01:29:36.060Z,100443.80
2018-11-26T01:32:03.413Z,100434.82
2018-11-26T01:34:30.781Z,100437.23
2018-11-26T01:36:58.221Z,100441.34
2018-11-26T01:39:25.567Z,100439.91
2018-11-26T01:41:52.886Z,100438.87
2018-11-26T01:44:20.224Z,100433.73
2018-11-26T01:46:47.569Z,100430.80
2018-11-26T01:49:14.915Z,100426.73
2018-11-26T01:51:42.202Z,100429.98
2018-11-26T01:54:09.703Z,100430.43
2018-11-26T01:56:37.048Z,100431.09
2018-11-26T01:59:04.454Z,100435.48
2018-11-26T02:01:31.796Z,100437.73
2018-11-26T02:03:59.099Z,100439.52
2018-11-26T02:06:26.446Z,100444.45
2018-11-26T02:08:53.752Z,100432.19
2018-11-26T02:11:21.204Z,100438.44
2018-11-26T02:13:48.542Z,100435.64
2018-11-26T02:16:15.986Z,100435.31
2018-11-26T02:18:43.332Z,100442.94
2018-11-26T02:21:10.701Z,100439.38
2018-11-26T02:23:38.654Z,100446.06
2018-11-26T02:26:06.205Z,100440.94
2018-11-26T02:28:34.135Z,100440.52
2018-11-26T02:31:01.529Z,100437.64
2018-11-26T02:33:28.853Z,100436.45
2018-11-26T02:35:56.187Z,100435.39
2018-11-26T02:38:23.545Z,100434.13
2018-11-26T02:40:50.884Z,100449.58
2018-11-26T02:43:18.262Z,100436.79
2018-11-26T02:45:45.664Z,100438.85
2018-11-26T02:48:13.766Z,100437.05
2018-11-26T02:50:41.579Z,100433.44
2018-11-26T02:53:08.953Z,100426.05
2018-11-26T02:55:36.282Z,100431.59
2018-11-26T02:58:03.618Z,100430.12
2018-11-26T03:00:30.962Z,100431.73
2018-11-26T03:02:58.394Z,100431.16
2018-11-26T03:05:27.348Z,100437.06
2018-11-26T03:07:54.794Z,100429.67
2018-11-26T03:10:22.611Z,100431.86
2018-11-26T03:12:49.987Z,100426.09
2018-11-26T03:15:17.374Z,100434.92
2018-11-26T03:17:45.879Z,100438.54
2018-11-26T03:20:14.205Z,100431.07
2018-11-26T03:22:41.590Z,100430.78
2018-11-26T03:25:10.125Z,100437.50
2018-11-26T03:27:37.540Z,100428.88
2018-11-26T03:30:13.232Z,100434.17
2018-11-26T03:32:40.609Z,100448.64
2018-11-26T03:35:09.065Z,100447.09
2018-11-26T03:37:36.378Z,100443.16
2018-11-26T03:40:07.825Z,100446.05
2018-11-26T03:42:35.272Z,100455.91
2018-11-26T03:45:02.639Z,100457.08
2018-11-26T03:47:30.007Z,100442.13
2018-11-26T03:49:57.501Z,100439.21
2018-11-26T03:52:24.832Z,100452.38
2018-11-26T03:54:52.197Z,100444.30
2018-11-26T03:57:19.711Z,100447.55
2018-11-26T03:59:47.183Z,100456.78
2018-11-26T04:02:14.652Z,100456.86
2018-11-26T04:04:41.994Z,100456.97
2018-11-26T04:07:09.341Z,100445.63
2018-11-26T04:09:36.676Z,100454.23
2018-11-26T04:12:04.235Z,100456.42
2018-11-26T04:14:31.590Z,100462.72
2018-11-26T04:17:02.303Z,100460.75
2018-11-26T04:19:29.735Z,100463.50
2018-11-26T04:21:57.054Z,100461.03
2018-11-26T04:24:24.527Z,100453.98
2018-11-26T04:26:51.987Z,100456.61
2018-11-26T04:29:19.306Z,100460.37
2018-11-26T04:31:46.697Z,100457.15
2018-11-26T04:34:14.055Z,100459.88
2018-11-26T04:36:41.393Z,100471.88
2018-11-26T04:39:08.717Z,100468.52
2018-11-26T04:41:36.128Z,100465.25
2018-11-26T04:44:03.456Z,100466.12
2018-11-26T04:46:30.904Z,100458.87
2018-11-26T04:48:58.254Z,100463.88
2018-11-26T04:51:25.700Z,100462.84
2018-11-26T04:53:53.096Z,100460.14
2018-11-26T04:56:20.512Z,100479.17
2018-11-26T04:58:47.870Z,100480.20
2018-11-26T05:01:15.303Z,100478.23
2018-11-26T05:03:42.626Z,100482.64
2018-11-26T05:06:09.956Z,100478.33
2018-11-26T05:08:37.803Z,100482.99
2018-11-26T05:11:05.463Z,100487.33
2018-11-26T05:13:32.806Z,100488.36
2018-11-26T05:16:00.184Z,100479.81
2018-11-26T05:18:27.587Z,100474.81
2018-11-26T05:20:54.902Z,100483.44
2018-11-26T05:23:22.264Z,100484.52
2018-11-26T05:25:49.595Z,100491.97
2018-11-26T05:28:16.887Z,100494.45
2018-11-26T05:30:44.230Z,100493.97
2018-11-26T05:33:11.660Z,100494.73
2018-11-26T05:35:39.085Z,100497.14
2018-11-26T05:38:06.413Z,100499.80
2018-11-26T05:40:33.903Z,100495.90
2018-11-26T05:43:01.297Z,100489.39
2018-11-26T05:45:28.736Z,100495.88
2018-11-26T05:47:56.073Z,100493.06
2018-11-26T05:50:23.389Z,100492.22
2018-11-26T05:52:50.871Z,100498.37
2018-11-26T05:55:18.305Z,100500.12
2018-11-26T05:57:46.303Z,100498.34
2018-11-26T06:00:22.099Z,100500.41
2018-11-26T06:02:49.444Z,100505.35
2018-11-26T06:05:20.602Z,100509.14
2018-11-26T06:07:48.020Z,100497.55
2018-11-26T06:10:15.384Z,100496.42
2018-11-26T06:12:42.693Z,100502.31
2018-11-26T06:15:12.364Z,100504.63
2018-11-26T06:17:39.998Z,100512.27
2018-11-26T06:20:09.258Z,100513.88
2018-11-26T06:22:36.613Z,100513.58
2018-11-26T06:25:05.623Z,100519.77
2018-11-26T06:27:32.950Z,100517.30
2018-11-26T06:30:00.292Z,100516.66
2018-11-26T06:32:27.702Z,100508.84
2018-11-26T06:34:55.012Z,100507.52
2018-11-26T06:37:22.353Z,100505.95
2018-11-26T06:39:49.702Z,100505.45
2018-11-26T06:42:17.014Z,100511.50
2018-11-26T06:44:44.354Z,100527.02
2018-11-26T06:47:11.787Z,100519.92
2018-11-26T06:49:39.350Z,100523.48
2018-11-26T06:52:06.708Z,100528.10
2018-11-26T06:54:34.213Z,100532.06
2018-11-26T06:57:01.639Z,100531.48
2018-11-26T06:59:29.105Z,100535.76
2018-11-26T07:01:56.451Z,100539.88
2018-11-26T07:04:23.793Z,100535.76
2018-11-26T07:06:51.189Z,100551.50
2018-11-26T07:09:18.490Z,100556.19
2018-11-26T07:11:45.951Z,100555.08
2018-11-26T07:14:13.273Z,100560.66
2018-11-26T07:16:41.383Z,100556.38
2018-11-26T07:19:08.790Z,100563.87
2018-11-26T07:21:36.263Z,100564.39
2018-11-26T07:24:03.591Z,100557.60
2018-11-26T07:26:30.927Z,100559.45
2018-11-26T07:28:58.355Z,100562.59
2018-11-26T07:31:25.790Z,100566.71
2018-11-26T07:33:53.225Z,100555.63
2018-11-26T07:36:20.630Z,100564.22
2018-11-26T07:38:48.123Z,100570.34
2018-11-26T07:41:15.457Z,100570.81
2018-11-26T07:43:42.873Z,100569.19
2018-11-26T07:46:10.216Z,100569.98
2018-11-26T07:48:37.638Z,100568.87
2018-11-26T07:51:05.536Z,100571.69
2018-11-26T07:53:32.937Z,100566.14
2018-11-26T07:56:00.248Z,100569.61
2018-11-26T07:58:27.598Z,100572.02
2018-11-26T08:00:55.017Z,100569.87
2018-11-26T08:03:22.529Z,100568.75
2018-11-26T08:05:50.671Z,100573.90
2018-11-26T08:08:18.210Z,100571.41
2018-11-26T08:10:46.852Z,100564.01
2018-11-26T08:13:14.366Z,100571.31
2018-11-26T08:15:41.793Z,100570.20
2018-11-26T08:18:09.117Z,100580.17
2018-11-26T08:20:36.547Z,100569.94
2018-11-26T08:23:04.268Z,100571.84
2018-11-26T08:25:31.674Z,100571.54
2018-11-26T08:27:59.294Z,100577.69
2018-11-26T08:30:27.321Z,100585.16
2018-11-26T08:32:55.971Z,100584.83
2018-11-26T08:35:23.334Z,100585.67
2018-11-26T08:38:01.384Z,100580.97
2018-11-26T08:40:30.429Z,100587.06
2018-11-26T08:43:15.349Z,100592.29
2018-11-26T08:45:51.852Z,100591.62
2018-11-26T08:48:30.834Z,100596.68
2018-11-26T08:50:59.367Z,100594.52
2018-11-26T08:53:26.875Z,100591.09
2018-11-26T08:55:54.297Z,100591.18
2018-11-26T08:58:21.726Z,100596.69
2018-11-26T09:00:55.294Z,100598.58
2018-11-26T09:03:23.756Z,100596.61
2018-11-26T09:05:59.750Z,100593.69
2018-11-26T09:08:27.854Z,100596.19
2018-11-26T09:10:55.302Z,100595.56
2018-11-26T09:13:22.647Z,100595.47
2018-11-26T09:15:50.016Z,100603.23
2018-11-26T09:18:17.414Z,100597.69
2018-11-26T09:20:44.796Z,100597.56
2018-11-26T09:23:12.173Z,100596.34
2018-11-26T09:25:39.487Z,100600.48
2018-11-26T09:28:06.840Z,100586.41
2018-11-26T09:30:34.198Z,100582.75
2018-11-26T09:33:01.660Z,100579.63
2018-11-26T09:35:29.006Z,100585.53
2018-11-26T09:37:56.395Z,100585.64
2018-11-26T09:40:23.772Z,100601.80
2018-11-26T09:42:51.118Z,100599.34
2018-11-26T09:45:18.550Z,100602.36
2018-11-26T09:47:46.214Z,100612.92
2018-11-26T09:50:18.027Z,100609.23
2018-11-26T09:52:45.540Z,100617.39
2018-11-26T09:55:14.317Z,100611.88
2018-11-26T09:57:41.680Z,100611.50
2018-11-26T10:00:11.655Z,100607.19
2018-11-26T10:02:39.705Z,100610.16
2018-11-26T10:05:09.431Z,100610.37
2018-11-26T10:07:36.900Z,100616.34
2018-11-26T10:10:06.032Z,100610.66
2018-11-26T10:12:33.941Z,100613.19
2018-11-26T10:15:01.319Z,100621.43
2018-11-26T10:17:28.631Z,100615.55
2018-11-26T10:19:56.005Z,100608.95
2018-11-26T10:22:23.441Z,100605.35
2018-11-26T10:24:50.843Z,100609.34
2018-11-26T10:27:18.257Z,100610.37
2018-11-26T10:29:45.751Z,100606.98
2018-11-26T10:32:13.138Z,100605.76
2018-11-26T10:34:40.791Z,100603.01
2018-11-26T10:37:08.131Z,100608.41
2018-11-26T10:39:35.480Z,100601.23
2018-11-26T10:42:02.927Z,100601.45
2018-11-26T10:44:30.269Z,100598.60
2018-11-26T10:46:57.646Z,100599.00
2018-11-26T10:49:25.096Z,100600.18
2018-11-26T10:51:52.556Z,100595.97
2018-11-26T10:54:20.388Z,100601.08
2018-11-26T10:56:47.769Z,100592.63
2018-11-26T10:59:15.322Z,100589.23
2018-11-26T11:01:44.390Z,100587.78
2018-11-26T11:04:11.852Z,100596.73
2018-11-26T11:06:39.290Z,100586.27
2018-11-26T11:09:07.926Z,100594.41
2018-11-26T11:11:35.280Z,100590.39
2018-11-26T11:14:02.865Z,100594.67
2018-11-26T11:16:30.236Z,100589.17
2018-11-26T11:18:57.575Z,100584.88
2018-11-26T11:21:25.146Z,100591.50
2018-11-26T11:23:52.627Z,100591.50
2018-11-26T11:26:20.034Z,100594.01
2018-11-26T11:28:47.368Z,100590.42
2018-11-26T11:31:15.274Z,100594.44
2018-11-26T11:33:42.746Z,100585.80
2018-11-26T11:36:10.135Z,100595.28
2018-11-26T11:38:37.506Z,100588.80
2018-11-26T11:41:05.889Z,100584.42
2018-11-26T11:43:33.408Z,100587.35
2018-11-26T11:46:00.844Z,100579.30
2018-11-26T11:48:28.232Z,100583.76
2018-11-26T11:50:55.549Z,100585.66
2018-11-26T11:53:23.026Z,100573.38
2018-11-26T11:55:50.832Z,100580.46
2018-11-26T11:58:18.192Z,100581.41
2018-11-26T12:00:47.091Z,100582.27
2018-11-26T12:03:17.889Z,100587.89
2018-11-26T12:05:45.315Z,100589.16
2018-11-26T12:08:12.778Z,100587.62
2018-11-26T12:10:40.222Z,100585.87
2018-11-26T12:13:09.197Z,100584.89
2018-11-26T12:15:38.292Z,100579.56
2018-11-26T12:18:06.782Z,100579.26
2018-11-26T12:20:34.533Z,100587.41
2018-11-26T12:23:01.988Z,100586.73
2018-11-26T12:25:29.525Z,100591.81
2018-11-26T12:27:56.955Z,100584.59
2018-11-26T12:30:25.652Z,100589.46
2018-11-26T12:32:53.105Z,100586.84
2018-11-26T12:35:20.445Z,100585.03
2018-11-26T12:37:47.899Z,100586.73
2018-11-26T12:42:55.239Z,100594.96
2018-11-26T12:45:26.911Z,100594.23
2018-11-26T12:47:54.324Z,100594.80
2018-11-26T12:50:21.693Z,100604.02
2018-11-26T12:52:49.963Z,100596.05
2018-11-26T12:55:18.379Z,100593.06
2018-11-26T12:57:46.899Z,100591.23
2018-11-26T13:00:25.096Z,100595.17
2018-11-26T13:03:02.243Z,100595.53
2018-11-26T13:05:29.604Z,100595.84
2018-11-26T13:07:56.947Z,100602.00
2018-11-26T13:10:24.320Z,100601.55
2018-11-26T13:12:52.298Z,100589.12
2018-11-26T13:15:20.968Z,100596.50
2018-11-26T13:17:48.328Z,100594.95
2018-11-26T13:20:19.128Z,100594.01
2018-11-26T13:22:46.588Z,100591.30
2018-11-26T13:25:17.218Z,100588.12
2018-11-26T13:27:48.171Z,100588.02
2018-11-26T13:30:18.842Z,100589.42
2018-11-26T13:32:48.394Z,100583.19
2018-11-26T13:35:16.837Z,100586.64
2018-11-26T13:37:44.293Z,100588.58
2018-11-26T13:40:13.056Z,100589.72
2018-11-26T13:42:40.799Z,100587.97
2018-11-26T13:45:17.675Z,100593.47
2018-11-26T13:47:45.458Z,100591.70
2018-11-26T13:50:17.737Z,100590.67
2018-11-26T13:52:45.099Z,100581.34
2018-11-26T13:55:12.718Z,100582.00
2018-11-26T13:57:40.287Z,100585.46
2018-11-26T14:00:14.849Z,100590.88
2018-11-26T14:02:42.308Z,100588.74
2018-11-26T14:05:11.165Z,100588.82
2018-11-26T14:07:38.641Z,100600.95
2018-11-26T14:10:10.439Z,100597.63
2018-11-26T14:12:38.094Z,100594.70
2018-11-26T14:15:08.207Z,100592.07
2018-11-26T14:17:35.674Z,100594.59
2018-11-26T14:20:03.356Z,100604.05
2018-11-26T14:22:30.839Z,100604.65
2018-11-26T14:24:58.216Z,100601.33
2018-11-26T14:27:25.664Z,100607.00
2018-11-26T14:29:53.509Z,100607.64
2018-11-26T14:32:21.266Z,100610.91
2018-11-26T14:34:49.105Z,100611.80
2018-11-26T14:37:16.437Z,100612.20
2018-11-26T14:39:43.781Z,100615.86
2018-11-26T14:42:11.161Z,100614.31
2018-11-26T14:44:38.530Z,100616.58
2018-11-26T14:47:06.482Z,100617.98
2018-11-26T14:49:33.832Z,100621.95
2018-11-26T14:52:01.269Z,100623.23
2018-11-26T14:54:28.619Z,100622.31
2018-11-26T14:56:56.055Z,100626.82
2018-11-26T14:59:23.416Z,100629.57
2018-11-26T15:01:50.877Z,100628.77
2018-11-26T15:04:18.201Z,100626.55
2018-11-26T15:06:45.576Z,100625.58
2018-11-26T15:09:12.889Z,100624.38
2018-11-26T15:11:40.344Z,100624.57
2018-11-26T15:14:07.765Z,100628.77
2018-11-26T15:16:35.162Z,100625.31
2018-11-26T15:19:02.550Z,100628.73
2018-11-26T15:21:30.606Z,100624.38
2018-11-26T15:23:58.048Z,100631.09
2018-11-26T15:26:28.602Z,100636.59
2018-11-26T15:28:56.845Z,100636.41
2018-11-26T15:31:24.172Z,100637.02
2018-11-26T15:33:51.515Z,100634.66
2018-11-26T15:36:18.880Z,100635.50
2018-11-26T15:38:46.242Z,100641.77
2018-11-26T15:41:13.618Z,100636.09
2018-11-26T15:43:41.036Z,100637.94
2018-11-26T15:46:09.117Z,100643.14
2018-11-26T15:48:36.451Z,100645.28
2018-11-26T15:51:03.792Z,100649.49
2018-11-26T15:53:31.810Z,100641.23
2018-11-26T15:55:59.216Z,100639.42
2018-11-26T15:58:26.649Z,100641.20
2018-11-26T16:00:54.158Z,100644.39
2018-11-26T16:03:21.625Z,100641.45
2018-11-26T16:05:49.135Z,100649.33
2018-11-26T16:08:16.501Z,100647.67
2018-11-26T16:10:43.819Z,100647.79
2018-11-26T16:13:13.286Z,100648.22
2018-11-26T16:15:42.155Z,100655.02
2018-11-26T16:18:13.518Z,100656.61
2018-11-26T16:20:39.813Z,100654.85
2018-11-26T16:23:08.656Z,100660.81
2018-11-26T16:25:37.245Z,100666.11
2018-11-26T16:28:05.165Z,100663.09
2018-11-26T16:30:32.679Z,100664.78
2018-11-26T16:33:00.106Z,100668.70
2018-11-26T16:35:29.139Z,100676.49
2018-11-26T16:37:56.731Z,100678.41
2018-11-26T16:40:24.251Z,100682.16
2018-11-26T16:42:51.835Z,100680.03
2018-11-26T16:45:21.445Z,100686.41
2018-11-26T16:47:51.126Z,100681.03
2018-11-26T16:50:19.634Z,100682.99
2018-11-26T16:52:47.088Z,100686.70
2018-11-26T16:55:15.217Z,100684.59
2018-11-26T16:57:42.915Z,100684.89
2018-11-26T17:00:17.365Z,100691.07
2018-11-26T17:02:45.752Z,100688.16
2018-11-26T17:05:17.993Z,100697.20
2018-11-26T17:07:45.374Z,100700.30
2018-11-26T17:10:12.728Z,100699.95
2018-11-26T17:12:40.546Z,100706.79
2018-11-26T17:15:12.555Z,100709.50
2018-11-26T17:17:40.040Z,100708.78
2018-11-26T17:20:09.360Z,100712.63
2018-11-26T17:22:36.719Z,100712.77
2018-11-26T17:25:05.323Z,100714.34
2018-11-26T17:27:32.817Z,100707.57
2018-11-26T17:30:00.322Z,100715.91
2018-11-26T17:32:27.742Z,100712.41
2018-11-26T17:34:55.307Z,100706.47
2018-11-26T17:37:22.807Z,100710.14
2018-11-26T17:39:50.173Z,100715.25
2018-11-26T17:42:17.530Z,100718.68
2018-11-26T17:44:45.062Z,100729.16
2018-11-26T17:47:12.999Z,100722.04
2018-11-26T17:49:40.389Z,100736.11
2018-11-26T17:52:07.928Z,100730.01
2018-11-26T17:54:35.815Z,100735.73
2018-11-26T17:57:03.143Z,100751.36
2018-11-26T17:59:30.957Z,100747.41
2018-11-26T18:01:59.082Z,100742.41
2018-11-26T18:04:26.496Z,100738.68
2018-11-26T18:06:53.847Z,100743.42
2018-11-26T18:09:22.869Z,100738.95
2018-11-26T18:11:48.880Z,100738.85
2018-11-26T18:14:16.240Z,100749.88
2018-11-26T18:16:44.639Z,100753.73
2018-11-26T18:19:12.064Z,100753.20
2018-11-26T18:21:39.478Z,100754.38
2018-11-26T18:24:07.148Z,100757.61
2018-11-26T18:26:35.238Z,100764.44
2018-11-26T18:29:02.938Z,100760.58
2018-11-26T18:31:30.800Z,100764.75
2018-11-26T18:33:58.521Z,100779.06
2018-11-26T18:36:26.028Z,100768.78
2018-11-26T18:38:53.352Z,100769.59
2018-11-26T18:41:20.809Z,100777.38
2018-11-26T18:43:48.139Z,100773.97
2018-11-26T18:46:15.463Z,100775.83
2018-11-26T18:48:42.936Z,100778.87
2018-11-26T18:51:10.321Z,100779.04
2018-11-26T18:53:37.698Z,100784.05
2018-11-26T18:56:06.065Z,100788.67
2018-11-26T18:58:34.594Z,100781.50
2018-11-26T19:01:01.996Z,100777.98
2018-11-26T19:03:29.494Z,100777.08
2018-11-26T19:05:56.940Z,100782.67
2018-11-26T19:08:24.525Z,100781.74
2018-11-26T19:10:55.166Z,100785.45
2018-11-26T19:13:24.731Z,100793.37
2018-11-26T19:15:56.234Z,100789.16
2018-11-26T19:18:25.807Z,100793.33
2018-11-26T19:20:53.704Z,100797.13
2018-11-26T19:23:21.683Z,100795.93
2018-11-26T19:25:50.500Z,100789.08
2018-11-26T19:28:20.471Z,100794.84
2018-11-26T19:30:45.537Z,100796.41
2018-11-26T19:33:12.885Z,100797.38
2018-11-26T19:35:40.322Z,100797.38
2018-11-26T19:38:08.046Z,100799.17
2018-11-26T19:40:36.913Z,100804.39
2018-11-26T19:43:04.949Z,100806.40
2018-11-26T19:45:32.515Z,100809.99
2018-11-26T19:48:00.013Z,100812.45
2018-11-26T19:50:27.351Z,100811.61
2018-11-26T19:52:54.916Z,100812.16
2018-11-26T19:55:23.641Z,100814.25
2018-11-26T19:57:51.650Z,100813.77
2018-11-26T20:00:27.973Z,100818.08
2018-11-26T20:03:13.957Z,100815.41
2018-11-26T20:05:48.321Z,100819.16
2018-11-26T20:08:15.704Z,100826.23
2018-11-26T20:10:43.064Z,100829.27
2018-11-26T20:13:10.509Z,100826.19
2018-11-26T20:15:37.970Z,100830.74
2018-11-26T20:18:05.962Z,100835.91
2018-11-26T20:20:33.300Z,100830.59
2018-11-26T20:23:00.778Z,100835.11
2018-11-26T20:25:28.260Z,100839.39
2018-11-26T20:27:56.112Z,100843.30
2018-11-26T20:30:23.147Z,100844.47
2018-11-26T20:32:50.618Z,100847.52
2018-11-26T20:35:17.998Z,100846.07
2018-11-26T20:37:45.493Z,100853.55
2018-11-26T20:40:14.077Z,100859.27
2018-11-26T20:42:48.539Z,100860.22
2018-11-26T20:45:16.368Z,100862.71
2018-11-26T20:47:45.253Z,100854.53
2018-11-26T20:50:27.901Z,100856.40
2018-11-26T20:52:56.565Z,100862.25
2018-11-26T20:55:25.070Z,100868.86
2018-11-26T20:57:54.129Z,100866.95
2018-11-26T21:00:22.953Z,100862.45
2018-11-26T21:02:52.867Z,100869.30
2018-11-26T21:05:20.632Z,100861.38
2018-11-26T21:07:48.377Z,100865.36
2018-11-26T21:10:16.410Z,100867.56
2018-11-26T21:12:44.941Z,100863.91
2018-11-26T21:15:15.183Z,100872.39
2018-11-26T21:17:44.275Z,100867.00
2018-11-26T21:20:19.579Z,100869.90
2018-11-26T21:22:48.112Z,100871.65
2018-11-26T21:25:16.389Z,100874.39
2018-11-26T21:27:44.771Z,100877.73
2018-11-26T21:30:14.706Z,100877.76
2018-11-26T21:32:43.156Z,100877.74
2018-11-26T21:35:12.610Z,100881.24
2018-11-26T21:37:41.335Z,100885.98
2018-11-26T21:40:11.063Z,100880.98
2018-11-26T21:42:38.872Z,100885.55
2018-11-26T21:45:16.884Z,100886.69
2018-11-26T21:47:44.620Z,100889.70
2018-11-26T21:50:13.514Z,100893.09
2018-11-26T21:52:41.694Z,100892.09
2018-11-26T21:55:13.997Z,100892.11
2018-11-26T21:57:41.852Z,100892.00
2018-11-26T22:00:20.687Z,100896.19
2018-11-26T22:02:49.038Z,100899.38
2018-11-26T22:05:17.256Z,100904.58
2018-11-26T22:07:45.313Z,100902.52
2018-11-26T22:10:15.610Z,100899.66
2018-11-26T22:12:45.426Z,100900.05
2018-11-26T22:15:13.713Z,100912.66
2018-11-26T22:17:41.787Z,100910.69
2018-11-26T22:20:13.600Z,100903.47
2018-11-26T22:22:41.357Z,100907.80
2018-11-26T22:25:10.337Z,100904.42
2018-11-26T22:27:38.598Z,100912.69
2018-11-26T22:30:38.487Z,100912.69
2018-11-26T22:33:06.369Z,100916.78
2018-11-26T22:35:34.185Z,100927.13
2018-11-26T22:38:01.915Z,100926.23
2018-11-26T22:40:29.422Z,100924.98
2018-11-26T22:42:56.750Z,100922.84
2018-11-26T22:45:28.059Z,100922.67
2018-11-26T22:48:01.960Z,100922.53
2018-11-26T22:50:29.371Z,100926.19
2018-11-26T22:52:56.765Z,100926.39
2018-11-26T22:55:24.119Z,100930.02
2018-11-26T22:57:51.502Z,100928.09
2018-11-26T23:00:26.622Z,100924.90
2018-11-26T23:02:55.411Z,100936.02
2018-11-26T23:05:22.775Z,100925.69
2018-11-26T23:07:50.177Z,100927.11
2018-11-26T23:10:17.526Z,100932.25
2018-11-26T23:12:44.935Z,100925.40
2018-11-26T23:15:13.587Z,100935.56
2018-11-26T23:17:41.361Z,100936.08
2018-11-26T23:20:11.173Z,100934.28
2018-11-26T23:22:39.549Z,100942.58
2018-11-26T23:25:09.490Z,100931.66
2018-11-26T23:27:36.835Z,100941.80
2018-11-26T23:30:08.300Z,100934.81
2018-11-26T23:32:35.635Z,100933.80
2018-11-26T23:35:02.962Z,100932.22
2018-11-26T23:37:30.425Z,100927.75
2018-11-26T23:39:57.796Z,100935.45
2018-11-26T23:42:25.202Z,100934.88
2018-11-26T23:44:52.594Z,100940.11
2018-11-26T23:47:19.948Z,100937.94
2018-11-26T23:49:47.926Z,100943.41
2018-11-26T23:52:15.366Z,100932.16
2018-11-26T23:54:42.730Z,100935.91
2018-11-26T23:57:10.228Z,100943.97
2018-11-26T23:59:37.685Z,100947.58
